createdAt,value
2023-02-12T00:00:50.762Z,6.91
2023-02-12T00:12:05.605Z,6.86
2023-02-12T00:16:30.302Z,6.90
2023-02-12T00:19:58.806Z,6.92
2023-02-12T00:23:27.297Z,6.95
2023-02-12T00:56:17.736Z,6.76
2023-02-12T01:00:29.595Z,6.76
2023-02-12T01:12:10.602Z,6.36
2023-02-12T01:16:19.064Z,6.51
2023-02-12T01:19:50.525Z,6.62
2023-02-12T01:23:21.761Z,6.56
2023-02-12T01:26:50.256Z,6.60
2023-02-12T01:34:34.702Z,6.70
2023-02-12T01:37:58.385Z,6.69
2023-02-12T01:49:43.850Z,6.54
2023-02-12T01:53:05.270Z,6.34
2023-02-12T02:05:17.625Z,6.59
2023-02-12T02:08:48.830Z,6.60
2023-02-12T02:12:35.820Z,6.55
2023-02-12T02:16:15.816Z,6.58
2023-02-12T02:33:03.790Z,6.29
2023-02-12T02:36:59.619Z,6.36
2023-02-12T02:40:45.664Z,6.50
2023-02-12T02:44:46.153Z,6.48
2023-02-12T03:00:16.398Z,6.62
2023-02-12T03:07:52.418Z,6.68
2023-02-12T03:12:02.418Z,6.48
2023-02-12T03:15:45.300Z,6.54
2023-02-12T03:19:26.435Z,6.54
2023-02-12T03:22:59.524Z,6.44
2023-02-12T03:26:27.880Z,6.44
2023-02-12T03:30:07.251Z,6.41
2023-02-12T03:34:15.092Z,6.30
2023-02-12T03:41:43.907Z,6.36
2023-02-12T03:49:39.561Z,6.39
2023-02-12T03:53:25.261Z,6.39
2023-02-12T03:57:24.386Z,6.46
2023-02-12T04:00:47.633Z,6.46
2023-02-12T04:04:31.731Z,6.45
2023-02-12T04:11:46.898Z,6.25
2023-02-12T04:19:48.958Z,5.87
2023-02-12T04:23:48.604Z,6.10
2023-02-12T04:27:40.812Z,6.20
2023-02-12T04:31:19.960Z,6.32
2023-02-12T04:34:57.175Z,6.26
2023-02-12T04:38:27.695Z,6.33
2023-02-12T05:09:49.694Z,6.20
2023-02-12T05:13:58.048Z,6.08
2023-02-12T05:21:32.929Z,5.95
2023-02-12T05:28:54.909Z,5.89
2023-02-12T05:35:51.324Z,6.09
2023-02-12T05:39:26.535Z,6.24
2023-02-12T05:50:38.023Z,6.27
2023-02-12T05:54:27.462Z,6.28
2023-02-12T06:01:56.555Z,6.33
2023-02-12T06:05:18.654Z,6.29
2023-02-12T06:08:58.530Z,6.24
2023-02-12T06:13:20.463Z,6.24
2023-02-12T06:17:42.011Z,6.34
2023-02-12T06:22:00.663Z,6.37
2023-02-12T06:38:56.071Z,6.42
2023-02-12T06:43:02.496Z,6.41
2023-02-12T07:12:59.077Z,6.49
2023-02-12T07:25:49.954Z,6.29
2023-02-12T07:34:16.512Z,6.42
2023-02-12T07:57:34.100Z,6.57
2023-02-12T08:09:15.827Z,6.96
2023-02-12T08:22:03.175Z,7.41
2023-02-12T08:26:14.702Z,7.55
2023-02-12T08:30:26.539Z,7.26
2023-02-12T08:33:59.861Z,7.32
2023-02-12T11:13:06.210Z,8.44
2023-02-12T11:30:58.553Z,8.95
2023-02-12T11:53:32.219Z,9.50
2023-02-12T12:05:48.171Z,9.99
2023-02-12T12:14:10.767Z,10.19
2023-02-12T12:17:50.305Z,10.43
2023-02-12T12:20:57.077Z,10.55
2023-02-12T12:24:04.147Z,10.43
2023-02-12T12:27:37.125Z,10.57
2023-02-12T12:31:04.184Z,10.35
2023-02-12T12:34:11.389Z,10.51
2023-02-12T12:37:30.291Z,10.57
2023-02-12T12:40:51.181Z,10.54
2023-02-12T12:44:08.232Z,11.05
2023-02-12T12:47:22.975Z,11.20
2023-02-12T12:50:45.620Z,11.51
2023-02-12T12:54:00.657Z,11.45
2023-02-12T12:57:16.745Z,11.98
2023-02-12T13:00:31.991Z,11.95
2023-02-12T13:04:02.622Z,13.18
2023-02-12T13:07:19.362Z,14.28
2023-02-12T13:10:32.308Z,15.52
2023-02-12T13:13:39.000Z,16.43
2023-02-12T13:16:47.198Z,17.28
2023-02-12T13:20:01.722Z,16.79
2023-02-12T13:23:13.905Z,16.05
2023-02-12T13:26:24.018Z,16.56
2023-02-12T13:29:31.166Z,16.06
2023-02-12T13:32:38.085Z,15.32
2023-02-12T13:35:46.187Z,14.54
2023-02-12T13:38:57.464Z,14.34
2023-02-12T13:42:21.608Z,14.61
2023-02-12T13:45:37.112Z,14.49
2023-02-12T13:48:54.582Z,13.85
2023-02-12T13:52:03.933Z,14.27
2023-02-12T13:55:24.099Z,14.95
2023-02-12T13:58:49.232Z,15.10
2023-02-12T14:01:52.266Z,14.97
2023-02-12T14:04:59.856Z,13.69
2023-02-12T14:08:05.937Z,13.49
2023-02-12T14:11:12.163Z,13.66
2023-02-12T14:14:25.628Z,13.70
2023-02-12T14:17:53.176Z,13.89
2023-02-12T14:21:42.739Z,13.33
2023-02-12T14:24:53.267Z,13.25
2023-02-12T14:27:59.097Z,12.98
2023-02-12T14:31:36.059Z,13.10
2023-02-12T14:34:40.610Z,12.66
2023-02-12T14:37:43.301Z,12.37
2023-02-12T14:40:47.904Z,12.04
2023-02-12T14:44:05.976Z,11.98
2023-02-12T14:47:51.152Z,12.07
2023-02-12T14:50:54.205Z,11.57
2023-02-12T14:53:58.268Z,11.35
2023-02-12T14:57:05.607Z,11.08
2023-02-12T15:00:22.939Z,10.75
2023-02-12T15:03:31.451Z,10.75
2023-02-12T15:06:41.041Z,10.53
2023-02-12T15:09:52.574Z,10.73
2023-02-12T15:13:03.240Z,10.88
2023-02-12T15:16:16.250Z,10.62
2023-02-12T15:19:30.225Z,10.50
2023-02-12T15:22:36.537Z,10.53
2023-02-12T15:25:40.943Z,10.37
2023-02-12T15:28:46.732Z,10.19
2023-02-12T15:31:55.312Z,10.32
2023-02-12T15:34:58.119Z,10.37
2023-02-12T15:38:02.079Z,10.23
2023-02-12T15:41:06.553Z,10.15
2023-02-12T15:44:25.671Z,10.02
2023-02-12T15:47:29.680Z,9.89
2023-02-12T15:50:34.641Z,9.89
2023-02-12T15:53:37.861Z,9.85
2023-02-12T15:56:42.625Z,9.95
2023-02-12T15:59:51.479Z,9.87
2023-02-12T16:02:55.712Z,9.80
2023-02-12T16:06:03.701Z,9.72
2023-02-12T16:09:10.424Z,9.58
2023-02-12T16:12:15.808Z,9.54
2023-02-12T16:15:31.265Z,9.42
2023-02-12T16:18:35.651Z,9.26
2023-02-12T16:21:40.029Z,9.34
2023-02-12T16:24:47.673Z,9.31
2023-02-12T16:27:57.469Z,9.31
2023-02-12T16:31:10.564Z,9.31
2023-02-12T16:34:30.427Z,9.31
2023-02-12T16:37:45.930Z,9.07
2023-02-12T16:41:24.591Z,8.96
2023-02-12T16:44:31.446Z,8.90
2023-02-12T16:47:34.238Z,8.76
2023-02-12T16:50:40.172Z,8.67
2023-02-12T16:53:47.050Z,8.62
2023-02-12T16:56:51.616Z,8.56
2023-02-12T16:59:54.395Z,8.41
2023-02-12T17:02:57.639Z,8.40
2023-02-12T17:06:00.336Z,8.21
2023-02-12T17:09:03.095Z,8.10
2023-02-12T17:12:07.755Z,8.13
2023-02-12T17:15:14.773Z,8.15
2023-02-12T17:18:18.249Z,8.13
2023-02-12T17:21:25.539Z,8.05
2023-02-12T17:24:30.917Z,8.02
2023-02-12T17:27:36.769Z,8.13
2023-02-12T17:30:40.786Z,7.90
2023-02-12T17:33:43.516Z,7.70
2023-02-12T17:36:46.447Z,7.79
2023-02-12T17:39:49.149Z,7.73
2023-02-12T17:42:53.568Z,7.86
2023-02-12T17:45:56.246Z,7.90
2023-02-12T17:48:59.135Z,7.89
2023-02-12T17:52:01.966Z,7.81
2023-02-12T17:55:05.867Z,7.73
2023-02-12T17:58:10.104Z,7.59
2023-02-12T18:01:14.567Z,7.41
2023-02-12T18:04:17.722Z,7.28
2023-02-12T18:07:20.461Z,7.08
2023-02-12T18:10:23.089Z,6.89
2023-02-12T18:13:27.106Z,6.75
2023-02-12T18:16:32.297Z,6.62
2023-02-12T18:19:35.261Z,6.44
2023-02-12T18:22:38.027Z,6.26
2023-02-12T18:25:42.083Z,6.15
2023-02-12T18:28:46.592Z,5.77
2023-02-12T18:31:49.437Z,5.73
2023-02-12T18:34:52.645Z,5.76
2023-02-12T18:38:17.190Z,5.67
2023-02-12T18:41:21.447Z,5.53
2023-02-12T18:44:26.076Z,5.41
2023-02-12T18:47:29.222Z,5.33
2023-02-12T18:50:31.936Z,5.27
2023-02-12T18:53:35.149Z,5.22
2023-02-12T18:56:41.111Z,5.24
2023-02-12T18:59:45.785Z,5.36
2023-02-12T19:02:48.456Z,5.36
2023-02-12T19:05:51.783Z,5.38
2023-02-12T19:08:55.938Z,5.39
2023-02-12T19:12:00.658Z,5.44
2023-02-12T19:15:05.064Z,5.38
2023-02-12T19:18:08.535Z,5.32
2023-02-12T19:21:13.183Z,5.26
2023-02-12T19:24:17.740Z,5.21
2023-02-12T19:27:20.505Z,5.14
2023-02-12T19:30:24.686Z,5.20
2023-02-12T19:33:27.504Z,5.19
2023-02-12T19:36:32.878Z,5.09
2023-02-12T19:39:35.680Z,5.01
2023-02-12T19:42:38.362Z,4.87
2023-02-12T19:45:42.406Z,4.82
2023-02-12T19:48:46.126Z,4.83
2023-02-12T19:51:49.244Z,4.82
2023-02-12T19:54:52.060Z,4.83
2023-02-12T19:57:54.730Z,4.81
2023-02-12T20:00:59.548Z,4.80
2023-02-12T20:04:03.499Z,4.67
2023-02-12T20:07:06.226Z,4.82
2023-02-12T20:10:09.499Z,4.67
2023-02-12T20:13:12.269Z,4.62
2023-02-12T20:16:18.584Z,4.48
2023-02-12T20:19:24.036Z,4.52
2023-02-12T20:22:27.151Z,4.47
2023-02-12T20:25:30.990Z,4.45
2023-02-12T20:28:34.741Z,4.37
2023-02-12T20:31:39.331Z,4.27
2023-02-12T20:34:50.456Z,4.27
2023-02-12T20:37:54.067Z,4.30
2023-02-12T20:41:00.353Z,4.23
2023-02-12T20:44:03.247Z,4.27
2023-02-12T20:47:07.405Z,4.29
2023-02-12T20:50:10.777Z,4.33
2023-02-12T20:53:13.724Z,4.36
2023-02-12T20:56:18.733Z,4.28
2023-02-12T20:59:22.218Z,4.13
2023-02-12T21:02:26.526Z,4.11
2023-02-12T21:05:30.411Z,4.12
2023-02-12T21:08:33.900Z,3.98
2023-02-12T21:11:37.881Z,3.97
2023-02-12T21:14:43.848Z,3.92
2023-02-12T21:17:47.894Z,3.87
2023-02-12T21:20:50.697Z,3.84
2023-02-12T21:23:55.946Z,3.81
2023-02-12T21:26:59.384Z,3.80
2023-02-12T21:30:02.310Z,3.78
2023-02-12T21:33:07.476Z,3.76
2023-02-12T21:36:13.024Z,3.74
2023-02-12T21:39:24.276Z,3.71
2023-02-12T21:42:27.158Z,3.74
2023-02-12T21:45:30.483Z,3.63
2023-02-12T21:48:34.946Z,3.66
2023-02-12T21:51:40.202Z,3.59
2023-02-12T21:54:43.221Z,3.49
2023-02-12T21:57:47.260Z,3.38
2023-02-12T22:00:50.997Z,3.38
2023-02-12T22:03:55.298Z,3.40
2023-02-12T22:07:03.088Z,3.36
2023-02-12T22:10:08.195Z,3.30
2023-02-12T22:13:10.999Z,3.26
2023-02-12T22:16:16.680Z,3.23
2023-02-12T22:19:21.206Z,3.20
2023-02-12T22:22:24.464Z,3.19
2023-02-12T22:25:27.780Z,3.16
2023-02-12T22:28:30.636Z,3.11
2023-02-12T22:31:36.609Z,3.11
2023-02-12T22:34:40.815Z,3.11
2023-02-12T22:37:43.814Z,3.17
2023-02-12T22:40:46.573Z,3.20
2023-02-12T22:43:49.632Z,3.16
2023-02-12T22:46:52.697Z,3.14
2023-02-12T22:49:56.771Z,3.03
2023-02-12T22:52:59.447Z,3.04
2023-02-12T22:56:03.669Z,2.98
2023-02-12T22:59:06.824Z,2.89
2023-02-12T23:02:09.826Z,2.83
2023-02-12T23:05:14.074Z,2.73
2023-02-12T23:08:17.090Z,2.75
2023-02-12T23:11:20.738Z,2.77
2023-02-12T23:14:23.623Z,2.84
2023-02-12T23:17:26.405Z,2.79
2023-02-12T23:20:30.456Z,2.67
2023-02-12T23:23:35.953Z,2.58
2023-02-12T23:26:38.652Z,2.63
2023-02-12T23:29:41.315Z,2.62
2023-02-12T23:32:44.218Z,2.57
2023-02-12T23:35:49.356Z,2.52
2023-02-12T23:38:52.081Z,2.56
2023-02-12T23:41:54.839Z,2.45
2023-02-12T23:44:57.875Z,2.40
2023-02-12T23:48:01.131Z,2.43
2023-02-12T23:51:05.310Z,2.46
2023-02-12T23:54:08.082Z,2.42
2023-02-12T23:57:10.782Z,2.43
